MV Nord Discovery — 3EGP — position and weather

sailwx.info

Track history (hours):
 
Tides and Currents Weather Stations Pressure Air Temp Water Temp Dewpoint Dewpoint Depression Visibility Wind Speed Wind Dir Waves Ship Positions

MV Nord Discovery

Last reported at 2016-May-20 07:30 UTC. Time now 2016-May-31 10:03 UTC.
Position S 19°22' E 117°21'.
Warning: this ship's position is 11 days out of date.

Length 183 m; draft 10.9 m.

Type: Cargo ship. MMSI: 354855000.

Date/timePositionNaut miles runAvg speedWind from/ knotsBaromVisibWave heightAir tempDewpointWater temp
2016-May-20 07:30S 19°22' E 117°21'2411.6
2016-May-20 05:27S 19°42' E 117°08'1112.0
2016-May-20 04:33S 19°52' E 117°02'1211.9
2016-May-20 03:31S 20°03' E 116°55'1111.8
2016-May-20 02:33S 20°12' E 116°49'1211.7
2016-May-20 01:32S 20°23' E 116°43'1010.5
2016-May-20 00:32S 20°33' E 116°42'  
2016-May-12 19:09N 01°15' E 104°03'3 5.3
2016-May-12 18:32N 01°17' E 104°01'0 0.2
2016-May-12 17:33N 01°17' E 104°01'0 0.0
2016-May-12 16:33N 01°17' E 104°01'0 0.0
2016-May-12 15:33N 01°17' E 104°01'0 0.0
2016-May-12 14:33N 01°17' E 104°01'0 0.0
2016-May-12 13:34N 01°17' E 104°01'0 0.0
2016-May-12 12:33N 01°17' E 104°01'0 0.0
2016-May-12 11:33N 01°17' E 104°01'0 0.0
2016-May-12 10:33N 01°17' E 104°01'0 0.0
2016-May-12 09:33N 01°17' E 104°01'2 1.6
2016-May-12 08:33N 01°16' E 103°59'7 6.6
2016-May-12 07:33N 01°12' E 103°54'1211.9
2016-May-12 06:32N 01°06' E 103°44'1311.0
2016-May-12 05:23N 01°07' E 103°31'7512.7
2016-May-11 23:31N 01°47' E 102°28'1111.8
2016-May-11 22:33N 01°52' E 102°18'  
Track history (hours):
 
Tides and Currents Weather Stations Pressure Air Temp Water Temp Dewpoint Dewpoint Depression Visibility Wind Speed Wind Dir Waves Ship Positions

MV Nord Discovery

Last reported at 2016-May-20 07:30 UTC. Time now 2016-May-31 10:03 UTC.
Position S 19°22' E 117°21'.
Warning: this ship's position is 11 days out of date.

Length 183 m; draft 10.9 m.

Type: Cargo ship. MMSI: 354855000.

Date/timePositionNaut miles runAvg speedWind from/ knotsBaromVisibWave heightAir tempDewpointWater temp
2016-May-20 07:30S 19°22' E 117°21'2411.6
2016-May-20 05:27S 19°42' E 117°08'1112.0
2016-May-20 04:33S 19°52' E 117°02'1211.9
2016-May-20 03:31S 20°03' E 116°55'1111.8
2016-May-20 02:33S 20°12' E 116°49'1211.7
2016-May-20 01:32S 20°23' E 116°43'1010.5
2016-May-20 00:32S 20°33' E 116°42'  
2016-May-12 19:09N 01°15' E 104°03'3 5.3
2016-May-12 18:32N 01°17' E 104°01'0 0.2
2016-May-12 17:33N 01°17' E 104°01'0 0.0
2016-May-12 16:33N 01°17' E 104°01'0 0.0
2016-May-12 15:33N 01°17' E 104°01'0 0.0
2016-May-12 14:33N 01°17' E 104°01'0 0.0
2016-May-12 13:34N 01°17' E 104°01'0 0.0
2016-May-12 12:33N 01°17' E 104°01'0 0.0
2016-May-12 11:33N 01°17' E 104°01'0 0.0
2016-May-12 10:33N 01°17' E 104°01'0 0.0
2016-May-12 09:33N 01°17' E 104°01'2 1.6
2016-May-12 08:33N 01°16' E 103°59'7 6.6
2016-May-12 07:33N 01°12' E 103°54'1211.9
2016-May-12 06:32N 01°06' E 103°44'1311.0
2016-May-12 05:23N 01°07' E 103°31'7512.7
2016-May-11 23:31N 01°47' E 102°28'1111.8
2016-May-11 22:33N 01°52' E 102°18'  

Dump ship's entire track history